TimePDT,TemperatureF,Dew PointF,Humidity,Sea Level PressureIn,VisibilityMPH,Wind Direction,Wind SpeedMPH,Gust SpeedMPH,PrecipitationIn,Events,Conditions,WindDirDegrees,DateUTC
12:53 AM,63.0,59.0,87,30.01,10.0,Calm,Calm,-,N/A,,Clear,0,2013-06-30 07:53:00
1:53 AM,61.0,57.9,90,30.01,10.0,West,3.5,-,N/A,,Clear,260,2013-06-30 08:53:00
2:53 AM,60.1,57.0,90,30.03,10.0,Calm,Calm,-,N/A,,Clear,0,2013-06-30 09:53:00
3:53 AM,61.0,57.9,90,30.03,10.0,Calm,Calm,-,N/A,Fog,Shallow Fog,0,2013-06-30 10:53:00
4:53 AM,60.1,55.9,86,30.03,10.0,Calm,Calm,-,N/A,Fog,Shallow Fog,0,2013-06-30 11:53:00
5:53 AM,63.0,61.0,93,30.04,7.0,Calm,Calm,-,N/A,Fog,Shallow Fog,0,2013-06-30 12:53:00
6:53 AM,66.0,59.0,78,30.05,10.0,ENE,5.8,-,N/A,Fog,Partly Cloudy,70,2013-06-30 13:53:00
7:53 AM,68.0,59.0,73,30.06,10.0,ENE,5.8,-,N/A,Fog,Partly Cloudy,70,2013-06-30 14:53:00
8:53 AM,71.1,59.0,66,30.06,10.0,NE,6.9,-,N/A,,Partly Cloudy,50,2013-06-30 15:53:00
9:53 AM,75.0,57.9,55,30.05,10.0,NNE,6.9,-,N/A,,Partly Cloudy,30,2013-06-30 16:53:00
10:53 AM,79.0,57.9,48,30.05,10.0,NE,5.8,-,N/A,,Partly Cloudy,50,2013-06-30 17:53:00
11:53 AM,82.0,55.9,41,30.04,10.0,NE,4.6,-,N/A,,Partly Cloudy,40,2013-06-30 18:53:00
12:53 PM,84.0,55.9,38,30.04,10.0,Calm,Calm,-,N/A,,Partly Cloudy,0,2013-06-30 19:53:00
1:53 PM,87.1,54.0,32,30.03,10.0,East,6.9,-,N/A,,Partly Cloudy,90,2013-06-30 20:53:00
2:53 PM,88.0,50.0,27,30.01,10.0,Calm,Calm,-,N/A,,Partly Cloudy,0,2013-06-30 21:53:00
3:53 PM,89.1,51.1,27,30.01,10.0,Calm,Calm,-,N/A,,Partly Cloudy,0,2013-06-30 22:53:00
4:53 PM,90.0,46.0,22,29.99,10.0,ENE,5.8,-,N/A,,Partly Cloudy,60,2013-06-30 23:53:00
5:53 PM,91.0,44.1,20,29.98,10.0,NNE,3.5,-,N/A,,Partly Cloudy,30,2013-07-01 00:53:00
6:53 PM,89.1,46.0,22,29.97,10.0,North,3.5,-,N/A,,Partly Cloudy,350,2013-07-01 01:53:00
7:53 PM,87.1,46.9,25,29.96,10.0,North,6.9,-,N/A,,Clear,360,2013-07-01 02:53:00
8:53 PM,80.1,48.0,32,29.96,10.0,North,5.8,-,N/A,,Clear,360,2013-07-01 03:53:00
9:53 PM,78.1,50.0,37,29.97,10.0,Calm,Calm,-,N/A,,Clear,0,2013-07-01 04:53:00
10:53 PM,73.0,57.0,57,29.98,10.0,Calm,Calm,-,N/A,,Clear,0,2013-07-01 05:53:00
11:53 PM,70.0,55.9,61,29.98,10.0,Calm,Calm,-,N/A,,Clear,0,2013-07-01 06:53:00